Time;durP1;ratioP1;P1;durP2;ratioP2;P2;SDS_P1;SDS_P2;PMS_P1;PMS_P2;Temp;Humidity;BMP_temperature;BMP_pressure;BME280_temperature;BME280_humidity;BME280_pressure;Samples;Min_cycle;Max_cycle;Signal;HPM_P1;HPM_P2
2021/05/28 00:01:22;;;;;;;39.13;33.83;;;17.30;97.20;;;;;;5039912;28;20152;-92
2021/05/28 00:03:48;;;;;;;42.67;32.53;;;17.20;97.10;;;;;;5010736;28;20120;-93
2021/05/28 00:06:14;;;;;;;39.28;32.83;;;17.20;97.00;;;;;;5020660;28;20034;-92
2021/05/28 00:08:40;;;;;;;43.72;32.47;;;17.20;96.80;;;;;;5026093;28;20022;-92
2021/05/28 00:11:06;;;;;;;39.65;33.22;;;17.20;96.60;;;;;;5028809;28;20026;-92
2021/05/28 00:13:33;;;;;;;37.13;32.13;;;17.20;96.40;;;;;;5021602;28;20022;-92
2021/05/28 00:15:59;;;;;;;43.22;34.30;;;17.20;96.60;;;;;;5023745;28;20044;-92
2021/05/28 00:18:25;;;;;;;39.22;31.80;;;17.20;96.60;;;;;;5027935;28;20002;-92
2021/05/28 00:20:51;;;;;;;38.03;33.97;;;17.20;96.70;;;;;;5025813;28;20040;-88
2021/05/28 00:23:17;;;;;;;37.03;32.88;;;17.10;96.80;;;;;;5019961;28;20443;-91
2021/05/28 00:25:43;;;;;;;38.15;32.92;;;17.10;96.90;;;;;;5021157;28;20092;-90
2021/05/28 00:28:09;;;;;;;41.65;32.92;;;17.10;97.00;;;;;;5019724;28;20026;-90
2021/05/28 00:30:35;;;;;;;37.17;33.10;;;17.10;96.90;;;;;;5021510;28;20026;-91
2021/05/28 00:33:00;;;;;;;40.08;32.90;;;17.10;96.90;;;;;;5025113;28;20026;-87
2021/05/28 00:35:26;;;;;;;36.58;32.58;;;17.10;96.80;;;;;;5023681;28;20048;-88
2021/05/28 00:37:53;;;;;;;40.65;35.55;;;17.10;96.80;;;;;;5019783;28;20029;-89
2021/05/28 00:40:19;;;;;;;41.97;33.42;;;17.00;97.00;;;;;;5019526;28;20053;-89
2021/05/28 00:42:45;;;;;;;41.17;33.85;;;17.00;96.70;;;;;;5019383;28;20053;-89
2021/05/28 00:45:11;;;;;;;38.70;34.55;;;17.00;96.80;;;;;;5019046;28;20077;-89
2021/05/28 00:47:38;;;;;;;41.17;36.53;;;17.00;96.90;;;;;;5019168;28;20021;-88
2021/05/28 00:50:05;;;;;;;43.40;34.45;;;17.00;96.90;;;;;;5018477;28;20018;-89
2021/05/28 00:52:31;;;;;;;;;;;16.90;97.00;;;;;;5017729;28;20030;-86
2021/05/28 00:54:57;;;;;;;43.15;36.47;;;16.80;96.60;;;;;;5017149;28;19913;-86
2021/05/28 00:57:27;;;;;;;43.53;36.80;;;16.80;97.00;;;;;;5019143;28;20053;-90
2021/05/28 00:59:56;;;;;;;44.25;37.85;;;16.80;97.20;;;;;;5040223;28;20049;-90
2021/05/28 01:02:24;;;;;;;48.40;37.45;;;16.80;97.30;;;;;;5044293;28;20033;-90
2021/05/28 01:04:49;;;;;;;;;;;16.70;97.30;;;;;;5044982;28;20094;-77
2021/05/28 01:07:16;;;;;;;45.10;36.20;;;16.70;97.00;;;;;;5059977;28;19893;-82
2021/05/28 01:09:42;;;;;;;42.80;36.67;;;16.70;97.40;;;;;;5057565;28;20516;-89
2021/05/28 01:12:08;;;;;;;50.75;39.78;;;16.70;97.40;;;;;;5054044;28;20025;-89
2021/05/28 01:14:34;;;;;;;47.45;36.95;;;16.70;97.50;;;;;;5059127;28;20027;-92
2021/05/28 01:17:01;;;;;;;45.30;38.13;;;16.70;97.50;;;;;;5058284;28;20037;-90
2021/05/28 01:19:27;;;;;;;50.53;40.97;;;16.70;97.60;;;;;;5055523;28;20033;-91
2021/05/28 01:21:56;;;;;;;46.85;37.75;;;16.70;97.80;;;;;;5045965;28;20071;-92
2021/05/28 01:24:22;;;;;;;52.00;37.47;;;16.60;97.90;;;;;;5055719;28;20084;-90
2021/05/28 01:26:48;;;;;;;47.10;39.22;;;16.60;98.20;;;;;;5056207;28;20033;-93
2021/05/28 01:29:15;;;;;;;50.60;39.13;;;16.60;98.30;;;;;;5047285;28;20033;-85
2021/05/28 01:31:41;;;;;;;56.47;41.92;;;16.60;98.40;;;;;;5058859;28;20029;-92
2021/05/28 01:34:07;;;;;;;54.90;41.10;;;16.60;98.30;;;;;;5055462;28;20030;-91
2021/05/28 01:36:33;;;;;;;62.60;41.95;;;16.60;98.40;;;;;;5046103;28;20053;-89
2021/05/28 01:38:59;;;;;;;59.63;45.28;;;16.50;98.60;;;;;;5028338;28;20029;-92
2021/05/28 01:41:31;;;;;;;65.32;46.85;;;16.50;98.80;;;;;;5047350;28;20148;-90
2021/05/28 01:43:57;;;;;;;61.55;47.20;;;16.50;99.00;;;;;;5034610;28;20049;-91
2021/05/28 01:46:25;;;;;;;61.60;47.45;;;16.50;99.10;;;;;;5001412;28;20023;-91
2021/05/28 01:48:51;;;;;;;60.28;44.38;;;16.50;99.20;;;;;;5004189;28;20105;-93
2021/05/28 01:51:17;;;;;;;61.40;46.95;;;16.60;99.30;;;;;;5003216;28;20073;-93
2021/05/28 01:53:44;;;;;;;57.45;42.03;;;16.70;99.20;;;;;;4985351;28;20049;-91
2021/05/28 01:56:09;;;;;;;57.70;45.08;;;16.80;99.00;;;;;;5004344;28;20498;-91
2021/05/28 01:58:36;;;;;;;52.80;42.17;;;16.90;99.00;;;;;;5011945;28;20039;-92
2021/05/28 02:01:03;;;;;;;59.47;43.72;;;17.10;98.80;;;;;;5007073;28;20054;-91
2021/05/28 02:03:30;;;;;;;58.70;43.35;;;17.30;98.30;;;;;;5012394;28;20057;-91
2021/05/28 02:05:57;;;;;;;49.22;40.85;;;17.50;97.90;;;;;;5017708;28;20061;-92
2021/05/28 02:08:23;;;;;;;54.90;44.00;;;17.60;97.40;;;;;;5012367;28;20023;-90
2021/05/28 02:10:49;;;;;;;51.72;40.97;;;17.60;97.00;;;;;;5013978;28;20022;-91
2021/05/28 02:13:15;;;;;;;56.00;41.33;;;17.70;96.70;;;;;;4987888;28;20018;-89
2021/05/28 02:15:41;;;;;;;53.17;43.15;;;17.50;96.30;;;;;;5003065;28;20041;-92
2021/05/28 02:18:07;;;;;;;50.20;41.10;;;17.40;96.60;;;;;;5041197;28;20026;-91
2021/05/28 02:20:34;;;;;;;51.28;42.42;;;17.30;96.70;;;;;;5048059;28;20030;-91
2021/05/28 02:23:00;;;;;;;56.38;43.22;;;17.40;96.90;;;;;;5042396;28;20021;-93
2021/05/28 02:25:26;;;;;;;50.75;42.45;;;17.40;96.90;;;;;;5042273;28;20068;-92
2021/05/28 02:27:51;;;;;;;47.83;42.08;;;17.40;96.80;;;;;;5050281;28;20041;-91
2021/05/28 02:30:18;;;;;;;50.92;41.10;;;17.50;96.80;;;;;;5055490;28;20001;-91
2021/05/28 02:32:44;;;;;;;53.78;42.80;;;17.70;96.70;;;;;;5057133;28;20001;-88
2021/05/28 02:35:11;;;;;;;44.20;38.72;;;17.90;96.10;;;;;;5050408;28;20025;-94
2021/05/28 02:37:39;;;;;;;48.05;38.47;;;18.00;95.90;;;;;;5050589;28;20024;-93
2021/05/28 02:40:06;;;;;;;50.67;39.28;;;18.10;95.70;;;;;;5033580;28;20029;-93
2021/05/28 02:42:32;;;;;;;;;;;18.10;95.20;;;;;;5046688;28;20025;-92
2021/05/28 02:44:58;;;;;;;45.05;39.42;;;18.10;95.20;;;;;;5055129;28;19909;-92
2021/05/28 02:47:24;;;;;;;47.40;38.92;;;18.10;95.20;;;;;;5044152;28;20100;-93
2021/05/28 02:49:50;;;;;;;43.50;38.05;;;18.20;95.00;;;;;;5044492;28;20021;-91
2021/05/28 02:52:17;;;;;;;47.65;41.08;;;18.20;94.90;;;;;;5023389;28;20395;-90
2021/05/28 02:54:44;;;;;;;45.40;40.50;;;18.40;94.70;;;;;;5022513;28;20026;-91
2021/05/28 02:57:12;;;;;;;45.45;37.67;;;18.40;94.50;;;;;;5020715;28;20113;-92
2021/05/28 02:59:38;;;;;;;41.33;36.85;;;18.50;94.30;;;;;;5031310;28;20077;-90
2021/05/28 03:02:04;;;;;;;44.08;38.47;;;18.60;94.30;;;;;;5039221;28;20112;-92
2021/05/28 03:04:30;;;;;;;46.93;38.77;;;18.60;94.10;;;;;;5035452;28;20027;-91
2021/05/28 03:06:58;;;;;;;45.38;37.60;;;18.80;94.10;;;;;;5038624;28;20108;-92
2021/05/28 03:09:24;;;;;;;41.40;37.00;;;18.90;93.90;;;;;;5039836;28;20017;-90
2021/05/28 03:11:50;;;;;;;43.70;38.95;;;19.00;93.80;;;;;;5044926;28;20022;-90
2021/05/28 03:14:17;;;;;;;42.88;38.20;;;19.10;93.60;;;;;;5048320;28;20013;-87
2021/05/28 03:16:43;;;;;;;44.90;38.22;;;19.20;93.30;;;;;;5049879;28;20029;-91
2021/05/28 03:19:21;;;;;;;46.22;39.58;;;19.20;93.10;;;;;;5048961;28;20045;-92
2021/05/28 03:24:36;;;;;;;39.97;35.42;;;19.30;93.00;;;;;;5023702;28;20021;-90
2021/05/28 03:27:02;;;;;;;41.55;37.10;;;19.40;92.80;;;;;;5035636;28;20016;-91
2021/05/28 03:29:28;;;;;;;42.33;37.92;;;19.40;92.70;;;;;;5048328;28;20014;-92
2021/05/28 03:31:54;;;;;;;38.80;34.67;;;19.40;92.60;;;;;;5041406;28;20026;-93
2021/05/28 03:34:20;;;;;;;39.63;35.58;;;19.50;92.30;;;;;;5042969;28;20367;-93
2021/05/28 03:36:46;;;;;;;36.40;32.60;;;19.50;92.30;;;;;;5052247;28;20056;-91
2021/05/28 03:39:18;;;;;;;36.05;32.05;;;19.50;92.00;;;;;;5057436;28;20041;-88
2021/05/28 03:41:45;;;;;;;38.28;34.00;;;19.50;92.00;;;;;;5058239;28;20056;-93
2021/05/28 03:44:11;;;;;;;33.00;29.63;;;19.50;92.00;;;;;;5037368;28;20034;-93
2021/05/28 03:46:37;;;;;;;34.63;30.75;;;19.50;91.90;;;;;;5058671;28;20030;-93
2021/05/28 03:49:03;;;;;;;34.33;30.83;;;19.40;91.90;;;;;;5053848;28;20081;-92
2021/05/28 03:51:29;;;;;;;34.92;31.42;;;19.40;92.00;;;;;;5049277;28;20021;-94
2021/05/28 03:53:55;;;;;;;34.90;30.63;;;19.50;92.10;;;;;;5049485;28;20065;-93
2021/05/28 03:56:21;;;;;;;35.95;32.13;;;19.50;92.00;;;;;;5033990;28;20037;-94
2021/05/28 03:58:47;;;;;;;37.33;32.45;;;19.60;91.80;;;;;;5050596;28;20041;-93
2021/05/28 04:01:13;;;;;;;35.35;31.50;;;19.60;91.60;;;;;;5058148;28;20041;-92
2021/05/28 04:03:38;;;;;;;34.67;30.95;;;19.70;91.60;;;;;;5043264;28;20504;-91
2021/05/28 04:06:04;;;;;;;33.33;30.02;;;19.80;91.60;;;;;;5043069;28;20017;-91
2021/05/28 04:08:30;;;;;;;34.53;30.92;;;19.80;91.30;;;;;;5051679;28;20473;-92
2021/05/28 04:10:56;;;;;;;31.20;27.90;;;19.70;91.10;;;;;;5046743;28;20036;-93
2021/05/28 04:13:29;;;;;;;29.48;26.40;;;19.60;91.20;;;;;;5029421;28;20028;-92
2021/05/28 04:15:55;;;;;;;30.88;26.55;;;19.60;91.20;;;;;;5064608;28;20013;-93
2021/05/28 04:18:22;;;;;;;28.60;25.67;;;19.60;91.30;;;;;;5046233;28;20025;-93
2021/05/28 04:20:47;;;;;;;29.27;26.37;;;19.70;91.20;;;;;;5012143;28;20059;-92
2021/05/28 04:23:13;;;;;;;30.05;26.70;;;19.70;91.10;;;;;;5043910;28;20030;-91
2021/05/28 04:25:39;;;;;;;29.20;26.20;;;19.60;91.00;;;;;;5047145;28;20022;-93
2021/05/28 04:28:05;;;;;;;27.55;24.58;;;19.50;91.10;;;;;;5048506;28;20032;-94
2021/05/28 04:30:31;;;;;;;28.90;26.10;;;19.40;91.40;;;;;;5048770;28;20026;-93
2021/05/28 04:32:57;;;;;;;25.88;23.38;;;19.40;91.50;;;;;;5035579;28;20033;-93
2021/05/28 04:35:23;;;;;;;30.15;27.08;;;19.40;91.70;;;;;;5032301;28;20083;-94
2021/05/28 04:37:49;;;;;;;29.83;26.67;;;19.40;91.70;;;;;;5047790;28;20029;-94
2021/05/28 04:40:19;;;;;;;28.38;25.58;;;19.40;91.80;;;;;;5046486;28;20022;-93
2021/05/28 04:42:46;;;;;;;28.40;25.67;;;19.30;91.70;;;;;;5023346;28;20095;-93
2021/05/28 04:45:12;;;;;;;30.27;27.10;;;19.40;91.90;;;;;;5036046;28;20028;-93
2021/05/28 04:47:38;;;;;;;27.48;24.58;;;19.30;91.90;;;;;;5045556;28;20029;-93
2021/05/28 04:50:04;;;;;;;30.10;26.90;;;19.40;92.00;;;;;;5029439;28;20056;-93
2021/05/28 04:52:30;;;;;;;29.02;26.02;;;19.50;91.70;;;;;;5044519;28;20217;-89
2021/05/28 04:54:56;;;;;;;28.52;25.55;;;19.60;91.40;;;;;;5046516;28;20025;-91
2021/05/28 04:57:22;;;;;;;31.45;28.38;;;19.60;91.20;;;;;;5045515;28;20531;-90
2021/05/28 04:59:47;;;;;;;33.30;29.85;;;19.70;91.30;;;;;;5054353;28;20107;-91
2021/05/28 05:02:13;;;;;;;33.53;29.88;;;19.70;91.40;;;;;;5056225;28;20038;-90
2021/05/28 05:04:40;;;;;;;33.60;29.15;;;19.70;91.30;;;;;;5042959;28;20608;-92
2021/05/28 05:07:06;;;;;;;31.58;28.27;;;19.70;91.10;;;;;;5042140;28;20022;-92
2021/05/28 05:09:32;;;;;;;31.45;28.35;;;19.80;91.00;;;;;;5047386;28;20513;-93
2021/05/28 05:11:58;;;;;;;32.63;29.02;;;19.80;91.10;;;;;;5029416;28;20048;-91
2021/05/28 05:14:24;;;;;;;32.63;28.67;;;19.80;90.70;;;;;;5055340;28;20073;-92
2021/05/28 05:16:50;;;;;;;30.80;27.65;;;19.70;91.10;;;;;;5057503;28;20037;-93
2021/05/28 05:19:16;;;;;;;30.77;27.58;;;19.70;91.20;;;;;;5051972;28;20084;-93
2021/05/28 05:21:43;;;;;;;31.77;28.40;;;19.80;91.00;;;;;;5042690;28;20092;-92
2021/05/28 05:24:10;;;;;;;30.05;26.98;;;19.90;90.90;;;;;;5049667;28;20033;-94
2021/05/28 05:26:37;;;;;;;31.27;27.92;;;20.10;90.60;;;;;;5057095;28;20098;-87
2021/05/28 05:29:04;;;;;;;32.88;28.73;;;20.20;90.30;;;;;;5059322;28;20021;-91
2021/05/28 05:31:30;;;;;;;30.50;26.80;;;20.30;90.30;;;;;;5041586;28;20024;-89
2021/05/28 05:33:56;;;;;;;31.98;28.60;;;20.30;90.00;;;;;;5057410;28;20026;-91
2021/05/28 05:36:24;;;;;;;29.67;26.77;;;20.30;89.60;;;;;;5053052;28;20025;-89
2021/05/28 05:38:50;;;;;;;30.35;27.27;;;20.30;89.20;;;;;;5023478;28;20402;-94
2021/05/28 05:41:17;;;;;;;28.67;25.85;;;20.20;89.30;;;;;;5044032;28;20056;-94
2021/05/28 05:43:43;;;;;;;35.15;27.88;;;20.20;89.10;;;;;;5044158;28;20045;-93
2021/05/28 05:46:09;;;;;;;28.58;25.23;;;20.20;89.10;;;;;;5040297;28;20010;-94
2021/05/28 05:48:35;;;;;;;28.67;25.63;;;20.20;89.10;;;;;;5032637;28;20025;-92
2021/05/28 05:51:02;;;;;;;28.80;25.55;;;20.20;89.10;;;;;;5042947;28;20033;-93
2021/05/28 05:53:28;;;;;;;28.58;25.33;;;20.30;89.10;;;;;;5026474;28;20029;-90
2021/05/28 05:55:54;;;;;;;27.85;25.05;;;20.30;88.50;;;;;;5028809;28;20036;-93
2021/05/28 05:58:21;;;;;;;25.63;23.10;;;20.40;87.90;;;;;;5026955;28;20022;-92
2021/05/28 06:00:47;;;;;;;29.77;24.92;;;20.40;87.80;;;;;;4990610;28;20044;-92
2021/05/28 06:03:19;;;;;;;24.63;22.02;;;20.50;87.40;;;;;;5013301;28;20050;-91
2021/05/28 06:05:45;;;;;;;24.85;22.23;;;20.50;86.50;;;;;;5006163;28;20062;-93
2021/05/28 06:08:11;;;;;;;26.75;23.63;;;20.40;86.60;;;;;;5019343;28;20041;-91
2021/05/28 06:10:38;;;;;;;25.65;23.25;;;20.30;86.80;;;;;;5006128;28;20025;-92
2021/05/28 06:13:06;;;;;;;27.10;24.40;;;20.40;87.00;;;;;;5015356;28;20033;-92
2021/05/28 06:15:35;;;;;;;26.25;23.38;;;20.50;86.80;;;;;;4996006;28;20026;-92
2021/05/28 06:18:05;;;;;;;26.75;24.20;;;20.70;86.80;;;;;;5020505;28;20037;-92
2021/05/28 06:20:31;;;;;;;27.02;24.30;;;20.90;85.50;;;;;;5020818;28;20160;-90
2021/05/28 06:22:57;;;;;;;25.60;22.90;;;21.10;84.90;;;;;;5011660;28;20034;-91
2021/05/28 06:25:24;;;;;;;24.73;22.35;;;21.30;84.40;;;;;;5028388;28;20034;-91
2021/05/28 06:27:49;;;;;;;27.15;24.45;;;21.60;83.40;;;;;;4993573;28;20046;-90
2021/05/28 06:30:16;;;;;;;27.45;23.85;;;22.00;82.30;;;;;;5029667;28;20037;-90
2021/05/28 06:32:43;;;;;;;24.38;21.75;;;22.60;81.20;;;;;;5032127;28;20030;-90
2021/05/28 06:35:10;;;;;;;22.25;20.05;;;23.40;78.40;;;;;;5033076;28;20053;-89
2021/05/28 06:37:35;;;;;;;23.65;21.15;;;24.10;74.50;;;;;;5016439;28;20026;-92
2021/05/28 06:40:02;;;;;;;21.13;18.35;;;24.90;71.80;;;;;;5027978;28;20040;-88
2021/05/28 06:42:28;;;;;;;22.17;19.60;;;25.20;69.50;;;;;;5039831;28;20057;-90
2021/05/28 06:44:54;;;;;;;20.40;18.40;;;25.20;67.70;;;;;;5036672;28;20048;-92
2021/05/28 06:47:19;;;;;;;21.02;18.85;;;24.90;67.40;;;;;;5017342;28;20047;-86
2021/05/28 06:49:45;;;;;;;21.25;19.05;;;24.60;68.50;;;;;;5035892;28;20532;-91
2021/05/28 06:52:11;;;;;;;21.35;18.83;;;24.40;68.70;;;;;;5012578;28;20419;-91
2021/05/28 06:54:38;;;;;;;22.35;20.25;;;24.20;69.20;;;;;;5037830;28;20021;-89
2021/05/28 06:57:04;;;;;;;20.83;18.70;;;24.00;70.10;;;;;;5041538;28;20021;-90
2021/05/28 06:59:30;;;;;;;21.23;19.25;;;23.90;70.70;;;;;;5044634;28;20089;-93
2021/05/28 07:01:57;;;;;;;;;;;23.80;71.00;;;;;;5043829;28;20040;-93
2021/05/28 07:04:23;;;;;;;25.58;22.88;;;23.80;72.00;;;;;;5010377;28;19968;-91
2021/05/28 07:06:49;;;;;;;24.00;21.67;;;23.80;72.10;;;;;;5026970;28;20030;-92
2021/05/28 07:09:15;;;;;;;24.83;22.25;;;23.60;71.50;;;;;;5009476;28;20034;-92
2021/05/28 07:11:42;;;;;;;25.55;23.02;;;23.60;72.40;;;;;;5018049;28;20149;-93
2021/05/28 07:14:08;;;;;;;25.80;23.15;;;23.60;71.70;;;;;;4997547;28;20010;-93
2021/05/28 07:16:34;;;;;;;25.50;22.75;;;23.70;71.30;;;;;;5024087;28;20064;-93
2021/05/28 07:19:00;;;;;;;25.70;23.13;;;23.50;72.20;;;;;;5025136;28;20025;-92
2021/05/28 07:21:26;;;;;;;25.33;22.73;;;23.60;72.00;;;;;;5026309;28;20087;-94
2021/05/28 07:23:52;;;;;;;23.52;21.23;;;23.70;71.90;;;;;;5025996;28;20165;-92
2021/05/28 07:26:19;;;;;;;23.83;21.48;;;23.90;71.40;;;;;;5037425;28;20080;-91
2021/05/28 07:28:45;;;;;;;24.83;22.23;;;24.00;70.70;;;;;;5036683;28;20033;-93
2021/05/28 07:31:11;;;;;;;25.08;21.85;;;24.20;70.70;;;;;;5026487;28;20038;-92
2021/05/28 07:33:37;;;;;;;23.30;21.08;;;24.80;68.50;;;;;;5025894;28;20024;-94
2021/05/28 07:36:04;;;;;;;20.45;18.40;;;25.60;66.30;;;;;;5035355;28;20041;-93
2021/05/28 07:38:30;;;;;;;;;;;26.30;63.10;;;;;;5056451;28;20041;-83
2021/05/28 07:40:57;;;;;;;27.40;22.20;;;26.60;64.90;;;;;;5056041;28;19904;-87
2021/05/28 07:43:23;;;;;;;33.80;22.40;;;26.70;61.50;;;;;;5036278;28;20294;-92
2021/05/28 07:45:51;;;;;;;24.92;21.77;;;26.90;61.40;;;;;;5058572;28;20033;-93
2021/05/28 07:48:19;;;;;;;;;;;27.00;60.80;;;;;;5038156;28;20025;-93
2021/05/28 07:50:47;;;;;;;23.98;21.60;;;28.00;62.40;;;;;;5026911;28;19912;-91
2021/05/28 07:53:14;;;;;;;25.65;21.92;;;29.00;57.00;;;;;;5028715;28;20429;-93
2021/05/28 07:55:44;;;;;;;23.83;19.45;;;30.20;54.40;;;;;;5027080;28;20040;-93
2021/05/28 07:58:10;;;;;;;23.73;18.92;;;31.60;49.80;;;;;;5028518;28;20027;-94
2021/05/28 08:00:36;;;;;;;21.20;19.00;;;;;;;;;;5026379;28;20045;-92
2021/05/28 08:03:04;;;;;;;22.85;20.42;;;;;;;;;;5016097;28;20259;-92
2021/05/28 08:05:30;;;;;;;20.15;18.15;;;;;;;;;;5031286;28;20038;-95
2021/05/28 08:07:59;;;;;;;20.65;18.75;;;;;;;;;;5049269;28;20037;-94
2021/05/28 08:10:29;;;;;;;18.48;16.60;;;;;;;;;;5049893;28;20045;-95
2021/05/28 08:12:57;;;;;;;18.65;16.00;;;;;;;;;;5029393;28;20021;-94
2021/05/28 08:15:25;;;;;;;17.08;14.88;;;;;;;;;;5047816;28;20017;-94
2021/05/28 08:17:52;;;;;;;21.17;19.00;;;;;;;;;;5047927;28;20033;-93
2021/05/28 08:20:18;;;;;;;15.05;13.65;;;;;;;;;;5050274;28;20025;-94
2021/05/28 08:22:44;;;;;;;14.77;11.77;;;32.60;47.40;;;;;;5055271;28;20077;-95
2021/05/28 08:25:12;;;;;;;14.02;11.27;;;33.50;43.60;;;;;;5036077;28;20029;-92
2021/05/28 08:27:39;;;;;;;14.32;11.30;;;33.10;42.80;;;;;;5034796;28;20041;-92
2021/05/28 08:30:09;;;;;;;14.75;12.48;;;32.70;43.20;;;;;;5019827;28;20037;-94
2021/05/28 08:32:38;;;;;;;18.13;12.90;;;32.40;44.00;;;;;;5024964;28;20072;-96
2021/05/28 08:35:06;;;;;;;21.10;13.82;;;31.70;44.80;;;;;;5028357;28;20056;-93
2021/05/28 08:37:31;;;;;;;16.30;13.38;;;31.10;46.70;;;;;;5036173;28;20022;-92
2021/05/28 08:39:57;;;;;;;16.80;14.40;;;30.60;47.40;;;;;;5047127;28;20079;-93
2021/05/28 08:42:23;;;;;;;15.85;14.27;;;30.00;48.60;;;;;;5058708;28;20040;-91
2021/05/28 08:44:51;;;;;;;14.65;13.25;;;29.50;49.20;;;;;;5053589;28;20029;-94
2021/05/28 08:47:17;;;;;;;14.95;13.45;;;28.90;50.50;;;;;;5050892;28;20061;-93
2021/05/28 08:49:47;;;;;;;19.77;13.13;;;28.80;51.60;;;;;;5046893;28;20061;-94
2021/05/28 08:52:14;;;;;;;19.52;13.10;;;29.00;51.30;;;;;;5046999;28;20089;-94
2021/05/28 08:54:40;;;;;;;13.75;12.45;;;28.90;50.90;;;;;;5046359;28;20029;-92
2021/05/28 08:57:07;;;;;;;16.13;13.80;;;28.40;52.20;;;;;;5027313;28;20041;-93
2021/05/28 08:59:34;;;;;;;15.93;14.23;;;28.50;52.70;;;;;;5050103;28;20152;-93
2021/05/28 09:02:00;;;;;;;14.63;13.13;;;29.10;52.50;;;;;;5052736;28;20077;-93
2021/05/28 09:04:26;;;;;;;14.30;12.67;;;29.50;50.50;;;;;;5049362;28;20033;-94
2021/05/28 09:06:53;;;;;;;17.15;14.10;;;29.10;51.30;;;;;;5046956;28;20490;-91
2021/05/28 09:09:24;;;;;;;13.38;11.98;;;29.00;51.60;;;;;;5045960;28;20030;-93
2021/05/28 09:12:01;;;;;;;12.23;11.13;;;28.70;51.70;;;;;;5046199;28;20030;-93
2021/05/28 09:14:36;;;;;;;13.07;11.07;;;28.60;51.70;;;;;;5050460;28;20147;-94
2021/05/28 09:17:05;;;;;;;12.30;10.45;;;28.70;51.00;;;;;;5046095;28;20061;-92
2021/05/28 09:19:34;;;;;;;13.93;9.15;;;28.50;50.30;;;;;;5011502;28;20031;-92
2021/05/28 09:22:03;;;;;;;11.90;10.40;;;28.70;50.20;;;;;;4997551;28;20069;-93
2021/05/28 09:24:40;;;;;;;12.90;10.27;;;29.00;49.40;;;;;;5015335;28;20034;-93
2021/05/28 09:27:29;;;;;;;13.27;9.65;;;29.10;49.20;;;;;;5016833;28;20018;-93
2021/05/28 09:30:00;;;;;;;9.80;8.82;;;29.00;48.80;;;;;;4999424;28;20045;-91
2021/05/28 09:32:30;;;;;;;8.60;7.80;;;28.10;48.70;;;;;;4993862;28;20057;-92
2021/05/28 09:34:58;;;;;;;9.40;8.55;;;27.10;50.00;;;;;;5008095;28;20085;-95
2021/05/28 09:37:50;;;;;;;10.93;9.13;;;26.50;52.20;;;;;;4991331;28;20089;-93
2021/05/28 09:40:22;;;;;;;10.18;9.00;;;26.50;53.60;;;;;;5008668;28;20027;-91
2021/05/28 09:42:59;;;;;;;12.98;10.57;;;26.70;53.30;;;;;;5009959;28;20019;-92
2021/05/28 09:45:40;;;;;;;14.32;10.25;;;26.80;53.00;;;;;;4981986;28;20517;-92
2021/05/28 09:48:34;;;;;;;14.85;10.40;;;27.00;53.20;;;;;;5014389;28;20038;-92
2021/05/28 09:51:06;;;;;;;10.60;9.02;;;27.30;53.00;;;;;;4990853;28;20042;-93
2021/05/28 09:53:42;;;;;;;11.52;10.43;;;27.60;51.80;;;;;;4991927;28;20023;-93
2021/05/28 09:56:27;;;;;;;10.65;9.52;;;27.50;51.50;;;;;;5012361;28;20033;-90
2021/05/28 09:59:05;;;;;;;11.43;9.50;;;27.20;51.20;;;;;;5052175;28;20161;-86
2021/05/28 10:01:31;;;;;;;12.77;9.68;;;26.70;52.40;;;;;;5040546;28;20045;-94
2021/05/28 10:04:04;;;;;;;10.65;9.73;;;26.60;53.50;;;;;;5038696;28;20081;-94
2021/05/28 10:06:35;;;;;;;14.50;9.80;;;26.70;54.10;;;;;;5032076;28;20032;-93
2021/05/28 10:09:11;;;;;;;11.30;9.52;;;27.00;53.50;;;;;;5015096;28;20037;-95
2021/05/28 10:11:39;;;;;;;13.73;10.40;;;27.40;51.90;;;;;;5034893;28;20036;-92
2021/05/28 10:14:06;;;;;;;10.55;9.52;;;28.10;50.90;;;;;;5042878;28;20474;-95
2021/05/28 10:16:32;;;;;;;16.15;14.65;;;28.30;49.80;;;;;;5044497;28;20040;-92
2021/05/28 10:18:59;;;;;;;11.18;9.82;;;28.30;49.70;;;;;;5046875;28;20022;-92
2021/05/28 10:21:27;;;;;;;10.10;9.07;;;27.80;50.30;;;;;;5039007;28;20081;-94
2021/05/28 10:23:54;;;;;;;11.38;10.15;;;27.00;50.00;;;;;;5026135;28;20014;-94
2021/05/28 10:26:44;;;;;;;12.50;11.15;;;26.20;53.00;;;;;;5040265;28;20076;-94
2021/05/28 10:29:11;;;;;;;11.07;9.77;;;25.90;53.50;;;;;;4996927;28;20478;-94
2021/05/28 10:32:18;;;;;;;12.57;11.27;;;25.50;54.10;;;;;;5005983;28;20033;-93
2021/05/28 10:35:27;;;;;;;15.98;11.82;;;25.20;55.30;;;;;;5035273;28;20120;-93
2021/05/28 10:37:52;;;;;;;18.13;15.20;;;25.10;55.70;;;;;;4985022;28;20046;-91
2021/05/28 10:40:25;;;;;;;14.40;11.65;;;;;;;;;;4986423;28;20035;-93
2021/05/28 10:43:19;;;;;;;12.82;11.02;;;25.00;56.30;;;;;;4982310;28;20043;-92
2021/05/28 10:45:54;;;;;;;12.02;10.88;;;24.40;57.40;;;;;;4981724;28;20066;-93
2021/05/28 10:48:42;;;;;;;12.93;11.13;;;24.30;57.90;;;;;;4981832;28;20031;-93
2021/05/28 10:51:12;;;;;;;16.85;13.18;;;;;;;;;;4979721;28;20102;-92
2021/05/28 10:53:59;;;;;;;14.38;12.93;;;24.20;58.30;;;;;;4982054;28;20069;-93
2021/05/28 10:56:27;;;;;;;12.77;11.48;;;24.00;59.60;;;;;;4971298;28;20037;-93
2021/05/28 10:58:58;;;;;;;12.85;11.48;;;23.80;60.10;;;;;;4982334;28;20046;-93
2021/05/28 11:01:33;;;;;;;16.95;13.38;;;24.00;60.20;;;;;;4993912;28;20066;-93
2021/05/28 11:03:59;;;;;;;16.42;11.40;;;24.20;59.90;;;;;;4975482;28;20127;-95
2021/05/28 11:06:25;;;;;;;13.03;11.70;;;24.40;59.30;;;;;;4987576;28;20050;-92
2021/05/28 11:09:09;;;;;;;12.88;11.52;;;24.50;59.10;;;;;;4975733;28;20268;-92
2021/05/28 11:11:43;;;;;;;14.30;12.82;;;24.90;58.90;;;;;;4987711;28;20035;-91
2021/05/28 11:14:11;;;;;;;12.93;11.43;;;25.20;58.20;;;;;;4996810;28;20125;-92
2021/05/28 11:16:53;;;;;;;12.27;11.23;;;25.30;57.80;;;;;;5028562;28;20094;-93
2021/05/28 11:19:32;;;;;;;13.15;11.98;;;25.20;57.80;;;;;;5029659;28;20033;-94
2021/05/28 11:22:19;;;;;;;13.25;11.95;;;25.30;57.50;;;;;;5045829;28;20073;-94
2021/05/28 11:24:45;;;;;;;13.20;11.88;;;25.10;58.20;;;;;;5001570;28;20034;-92
2021/05/28 11:27:16;;;;;;;13.50;11.43;;;25.20;58.20;;;;;;4991459;28;20145;-91
2021/05/28 11:29:42;;;;;;;16.88;11.38;;;25.20;55.20;;;;;;4996623;28;20040;-92
2021/05/28 11:32:31;;;;;;;13.75;12.20;;;25.10;56.20;;;;;;4972291;28;20038;-90
2021/05/28 11:35:31;;;;;;;24.40;12.32;;;25.10;57.00;;;;;;5002163;28;20042;-93
2021/05/28 11:38:04;;;;;;;18.27;12.68;;;25.10;57.40;;;;;;4999021;28;20030;-94
2021/05/28 11:40:31;;;;;;;16.17;12.75;;;25.20;57.80;;;;;;5013871;28;20022;-92
2021/05/28 11:43:12;;;;;;;20.85;12.23;;;25.40;57.80;;;;;;5001786;28;20034;-90
2021/05/28 11:45:41;;;;;;;18.35;10.32;;;25.60;58.20;;;;;;4994383;28;20026;-92
2021/05/28 11:48:12;;;;;;;18.08;11.23;;;25.90;55.00;;;;;;4997772;28;20033;-93
2021/05/28 11:50:42;;;;;;;13.23;11.25;;;25.90;53.30;;;;;;4996695;28;20106;-93
2021/05/28 11:53:10;;;;;;;11.90;10.88;;;25.80;55.00;;;;;;5007567;28;20030;-92
2021/05/28 11:55:48;;;;;;;13.27;11.73;;;25.70;54.10;;;;;;4993199;28;20038;-92
2021/05/28 11:58:18;;;;;;;13.10;11.07;;;25.40;54.90;;;;;;4980062;28;20026;-89
2021/05/28 12:00:50;;;;;;;14.85;12.00;;;25.30;54.70;;;;;;5017484;28;20046;-92
2021/05/28 12:03:17;;;;;;;11.43;10.15;;;25.40;55.10;;;;;;5033219;28;20120;-91
2021/05/28 12:06:03;;;;;;;11.20;10.02;;;25.40;53.10;;;;;;5025468;28;20030;-93
2021/05/28 12:08:29;;;;;;;18.27;11.88;;;25.00;52.70;;;;;;5025104;28;20030;-91
2021/05/28 12:11:06;;;;;;;12.68;11.40;;;24.80;53.80;;;;;;4982679;28;20404;-92
2021/05/28 12:13:37;;;;;;;16.27;11.95;;;24.80;55.80;;;;;;4969394;28;20039;-93
2021/05/28 12:16:12;;;;;;;13.13;11.82;;;24.90;55.20;;;;;;4986408;28;20034;-94
2021/05/28 12:18:46;;;;;;;10.82;9.82;;;24.90;55.00;;;;;;4984251;28;20046;-83
2021/05/28 12:21:25;;;;;;;14.98;9.80;;;25.10;55.60;;;;;;4981847;28;20061;-94
2021/05/28 12:23:56;;;;;;;10.07;9.07;;;25.30;52.60;;;;;;4972580;28;20035;-93
2021/05/28 12:26:24;;;;;;;16.90;9.25;;;25.30;50.20;;;;;;4983107;28;20041;-92
2021/05/28 12:28:55;;;;;;;13.27;8.93;;;25.10;49.80;;;;;;4982288;28;20190;-93
2021/05/28 12:31:28;;;;;;;34.33;10.55;;;24.90;49.90;;;;;;4971584;28;20031;-93
2021/05/28 12:34:21;;;;;;;12.73;9.38;;;24.60;49.60;;;;;;4946921;29;20024;-93
2021/05/28 12:36:49;;;;;;;15.00;10.00;;;24.40;50.50;;;;;;4906607;29;20044;-91
2021/05/28 12:39:18;;;;;;;8.63;6.50;;;24.30;51.30;;;;;;4936505;29;20117;-92
2021/05/28 12:41:45;;;;;;;10.15;8.30;;;24.20;48.30;;;;;;4923554;29;20517;-91
2021/05/28 12:44:20;;;;;;;8.57;7.22;;;24.10;50.10;;;;;;4925764;29;20021;-94